Time;durP1;ratioP1;P1;durP2;ratioP2;P2;SDS_P1;SDS_P2;PMS_P1;PMS_P2;Temp;Humidity;BMP_temperature;BMP_pressure;BME280_temperature;BME280_humidity;BME280_pressure;Samples;Min_cycle;Max_cycle;Signal;HPM_P1;HPM_P2
2023/04/29 00:01:24;;;;;;;10.00;5.70;;;;;;;13.02;100.00;100038.84;5184486;28;20116;-72
2023/04/29 00:03:55;;;;;;;12.25;6.20;;;;;;;12.98;100.00;100036.47;5195317;28;20040;-74
2023/04/29 00:06:25;;;;;;;12.20;5.78;;;;;;;12.99;100.00;100032.91;5183801;28;20104;-73
2023/04/29 00:08:55;;;;;;;10.80;6.07;;;;;;;13.04;100.00;100033.53;5181419;28;20486;-73
2023/04/29 00:11:25;;;;;;;11.15;6.05;;;;;;;13.03;100.00;100032.69;5184024;28;20028;-73
2023/04/29 00:13:56;;;;;;;10.75;6.40;;;;;;;13.08;100.00;100030.63;5189610;28;20446;-74
2023/04/29 00:16:26;;;;;;;11.90;6.55;;;;;;;13.12;100.00;100031.34;5186586;28;20176;-73
2023/04/29 00:18:56;;;;;;;13.15;6.90;;;;;;;13.18;100.00;100031.84;5174976;28;20052;-72
2023/04/29 00:21:27;;;;;;;11.57;6.82;;;;;;;13.21;100.00;100036.09;5187627;28;20130;-73
2023/04/29 00:23:58;;;;;;;11.50;6.43;;;;;;;13.17;100.00;100027.53;5183102;28;20052;-73
2023/04/29 00:26:28;;;;;;;13.18;6.80;;;;;;;13.18;100.00;100030.97;5186940;28;20037;-73
2023/04/29 00:28:58;;;;;;;11.68;6.70;;;;;;;13.20;100.00;100037.03;5188194;28;20041;-73
2023/04/29 00:31:30;;;;;;;12.43;7.18;;;;;;;13.15;100.00;100039.03;5189925;28;20064;-72
2023/04/29 00:34:00;;;;;;;11.88;6.55;;;;;;;13.20;100.00;100034.41;5188281;28;20104;-71
2023/04/29 00:36:31;;;;;;;12.05;7.07;;;;;;;13.24;100.00;100038.53;5177778;28;20499;-72
2023/04/29 00:39:01;;;;;;;11.75;7.10;;;;;;;13.21;100.00;100039.53;5174897;28;20483;-72
2023/04/29 00:41:32;;;;;;;12.27;6.40;;;;;;;13.22;100.00;100043.03;5184826;28;20048;-73
2023/04/29 00:44:02;;;;;;;14.20;7.32;;;;;;;13.21;100.00;100039.53;5190431;28;20445;-71
2023/04/29 00:46:33;;;;;;;16.30;7.82;;;;;;;13.15;100.00;100044.28;5189192;28;20040;-73
2023/04/29 00:49:04;;;;;;;13.60;7.68;;;;;;;13.09;100.00;100045.44;5194090;28;20030;-73
2023/04/29 00:51:36;;;;;;;13.65;7.47;;;;;;;13.04;100.00;100044.03;5195307;28;20099;-73
2023/04/29 00:54:07;;;;;;;13.68;7.55;;;;;;;13.08;100.00;100053.41;5189094;28;20105;-72
2023/04/29 00:56:41;;;;;;;14.27;7.28;;;;;;;13.10;100.00;100044.50;5193102;28;20025;-73
2023/04/29 00:59:14;;;;;;;16.58;8.30;;;;;;;13.07;100.00;100059.59;5196258;28;20029;-72
2023/04/29 01:01:45;;;;;;;17.27;7.82;;;;;;;13.06;100.00;100050.03;5189368;28;20030;-73
2023/04/29 01:04:16;;;;;;;15.77;7.88;;;;;;;12.95;100.00;100055.00;5197485;28;20056;-73
2023/04/29 01:06:53;;;;;;;15.88;7.95;;;;;;;12.96;100.00;100054.06;5187390;28;20034;-73
2023/04/29 01:09:49;;;;;;;16.58;8.82;;;;;;;12.93;100.00;100052.44;5188067;28;20124;-72
2023/04/29 01:12:21;;;;;;;15.05;7.55;;;;;;;12.89;100.00;100052.69;5195158;28;20029;-71
2023/04/29 01:15:03;;;;;;;14.40;7.65;;;;;;;12.83;100.00;100052.16;5192647;28;20025;-72
2023/04/29 01:17:43;;;;;;;16.55;8.48;;;;;;;12.84;100.00;100056.47;5187037;28;20108;-73
2023/04/29 01:20:13;;;;;;;17.20;8.30;;;;;;;12.89;100.00;100060.56;5190735;28;20030;-72
2023/04/29 01:22:44;;;;;;;18.48;9.57;;;;;;;12.90;100.00;100064.88;5199025;28;20395;-71
2023/04/29 01:25:15;;;;;;;20.85;11.07;;;;;;;12.80;100.00;100057.56;5195087;28;20033;-73
2023/04/29 01:27:58;;;;;;;19.40;10.23;;;;;;;12.83;100.00;100063.47;5185527;28;20080;-70
2023/04/29 01:30:44;;;;;;;22.77;10.70;;;;;;;12.81;100.00;100061.88;5185340;28;20028;-73
2023/04/29 01:33:43;;;;;;;19.05;10.27;;;;;;;12.79;100.00;100067.19;5194039;28;20555;-73
2023/04/29 01:36:50;;;;;;;21.15;10.70;;;;;;;12.79;100.00;100069.81;5193637;28;20488;-72
2023/04/29 01:39:32;;;;;;;20.85;10.43;;;;;;;12.76;100.00;100066.50;5188789;28;20113;-71
2023/04/29 01:42:25;;;;;;;25.25;10.80;;;;;;;12.74;100.00;100074.47;5188688;28;20091;-72
2023/04/29 01:44:59;;;;;;;21.35;10.68;;;;;;;12.72;100.00;100075.47;5195039;28;20048;-71
2023/04/29 01:47:31;;;;;;;22.90;11.48;;;;;;;12.74;100.00;100087.56;5186052;28;20475;-72
2023/04/29 01:50:01;;;;;;;23.17;11.43;;;;;;;12.73;100.00;100075.41;5186056;28;20033;-73
2023/04/29 01:52:32;;;;;;;22.08;11.25;;;;;;;12.71;100.00;100090.38;5190144;28;20400;-73
2023/04/29 01:55:03;;;;;;;27.73;13.45;;;;;;;12.66;100.00;100094.97;5188209;28;20033;-73
2023/04/29 01:57:33;;;;;;;31.33;13.60;;;;;;;12.59;100.00;100091.00;5196359;28;20399;-74
2023/04/29 02:00:04;;;;;;;29.25;12.98;;;;;;;12.60;100.00;100092.69;5190736;28;20029;-72
2023/04/29 02:02:34;;;;;;;28.00;12.60;;;;;;;12.65;100.00;100092.44;5185259;28;20033;-73
2023/04/29 02:05:05;;;;;;;29.20;13.38;;;;;;;12.60;100.00;100094.47;5187668;28;20049;-71
2023/04/29 02:07:35;;;;;;;31.75;14.27;;;;;;;12.54;100.00;100097.38;5185026;28;20056;-72
2023/04/29 02:10:06;;;;;;;27.73;13.13;;;;;;;12.58;100.00;100107.63;5184482;28;20040;-73
2023/04/29 02:12:36;;;;;;;30.75;12.98;;;;;;;12.55;100.00;100104.31;5186697;28;20030;-72
2023/04/29 02:15:07;;;;;;;33.42;14.27;;;;;;;12.53;100.00;100114.91;5189476;28;20723;-73
2023/04/29 02:17:37;;;;;;;32.35;13.52;;;;;;;12.52;100.00;100110.59;5191704;28;20022;-72
2023/04/29 02:20:09;;;;;;;34.75;15.02;;;;;;;12.50;100.00;100109.78;5185175;28;20423;-72
2023/04/29 02:22:39;;;;;;;35.10;14.23;;;;;;;12.44;100.00;100123.22;5193036;28;20044;-73
2023/04/29 02:25:10;;;;;;;31.38;13.82;;;;;;;12.48;100.00;100121.28;5192375;28;20025;-72
2023/04/29 02:27:40;;;;;;;35.20;14.23;;;;;;;12.53;100.00;100112.28;5184163;28;20060;-72
2023/04/29 02:30:11;;;;;;;31.90;13.07;;;;;;;12.47;100.00;100119.59;5180885;28;20434;-73
2023/04/29 02:32:41;;;;;;;31.52;14.02;;;;;;;12.48;100.00;100126.53;5191157;28;20030;-73
2023/04/29 02:35:17;;;;;;;37.95;14.55;;;;;;;12.49;100.00;100123.81;5181469;28;20034;-73
2023/04/29 02:37:47;;;;;;;33.28;13.52;;;;;;;12.49;100.00;100128.22;5182924;28;20021;-72
2023/04/29 02:40:18;;;;;;;33.88;13.93;;;;;;;12.39;100.00;100133.09;5191560;28;20052;-74
2023/04/29 02:42:48;;;;;;;30.77;13.20;;;;;;;12.36;100.00;100122.75;5189623;28;20540;-70
2023/04/29 02:45:19;;;;;;;32.15;13.43;;;;;;;12.38;100.00;100136.63;5187816;28;20502;-72
2023/04/29 02:47:49;;;;;;;30.75;12.27;;;;;;;12.26;100.00;100134.63;5185852;28;20022;-71
2023/04/29 02:50:19;;;;;;;33.25;13.52;;;;;;;12.31;100.00;100132.59;5191261;28;20030;-73
2023/04/29 02:52:50;;;;;;;31.58;13.38;;;;;;;12.31;100.00;100129.16;5191039;28;20030;-72
2023/04/29 02:55:20;;;;;;;38.13;14.23;;;;;;;12.34;100.00;100140.34;5190977;28;20372;-72
2023/04/29 02:57:51;;;;;;;32.38;13.52;;;;;;;12.29;100.00;100134.44;5189737;28;20029;-72
2023/04/29 03:00:22;;;;;;;33.65;14.20;;;;;;;12.25;100.00;100140.78;5185748;28;20483;-71
2023/04/29 03:02:52;;;;;;;33.45;14.02;;;;;;;12.26;100.00;100141.66;5190086;28;20049;-72
2023/04/29 03:05:23;;;;;;;33.15;14.38;;;;;;;12.22;100.00;100140.94;5181903;28;20057;-72
2023/04/29 03:07:53;;;;;;;31.17;12.98;;;;;;;12.18;100.00;100142.03;5189240;28;20034;-71
2023/04/29 03:10:23;;;;;;;29.85;14.20;;;;;;;12.16;100.00;100132.53;5194315;28;20034;-74
2023/04/29 03:12:54;;;;;;;31.58;13.02;;;;;;;12.09;100.00;100147.69;5187677;28;20041;-73
2023/04/29 03:15:24;;;;;;;32.17;13.50;;;;;;;12.11;100.00;100143.22;5185386;28;20041;-72
2023/04/29 03:17:54;;;;;;;29.33;12.00;;;;;;;12.08;100.00;100147.75;5191573;28;20042;-73
2023/04/29 03:20:24;;;;;;;29.90;12.60;;;;;;;12.03;100.00;100140.13;5190098;28;21594;-72
2023/04/29 03:22:55;;;;;;;26.00;11.65;;;;;;;12.15;100.00;100142.13;5184839;28;20423;-72
2023/04/29 03:25:25;;;;;;;28.42;11.88;;;;;;;12.15;100.00;100139.53;5183864;28;20073;-72
2023/04/29 03:27:56;;;;;;;24.98;11.93;;;;;;;12.08;100.00;100147.75;5188974;28;20021;-72
2023/04/29 03:30:26;;;;;;;30.95;11.50;;;;;;;12.13;100.00;100154.47;5185728;28;20021;-72
2023/04/29 03:32:56;;;;;;;27.02;11.55;;;;;;;12.12;100.00;100150.16;5191399;28;20197;-73
2023/04/29 03:35:26;;;;;;;27.83;11.85;;;;;;;12.14;100.00;100150.91;5203736;23;20292;-72
2023/04/29 03:37:57;;;;;;;25.80;10.85;;;;;;;12.10;100.00;100154.63;5183542;28;20021;-70
2023/04/29 03:40:27;;;;;;;24.95;11.80;;;;;;;12.10;100.00;100162.47;5183884;28;20021;-69
2023/04/29 03:42:59;;;;;;;26.13;12.75;;;;;;;12.14;100.00;100168.44;5183486;28;20030;-71
2023/04/29 03:45:29;;;;;;;24.63;11.57;;;;;;;12.13;100.00;100159.72;5181453;28;20038;-72
2023/04/29 03:48:00;;;;;;;28.25;12.70;;;;;;;12.10;100.00;100157.25;5173099;28;20562;-72
2023/04/29 03:50:30;;;;;;;27.80;11.73;;;;;;;12.09;100.00;100160.78;5176973;28;20125;-73
2023/04/29 03:53:01;;;;;;;27.45;11.77;;;;;;;12.08;100.00;100164.31;5175848;28;20505;-73
2023/04/29 03:55:31;;;;;;;23.48;11.82;;;;;;;12.12;100.00;100165.88;5176059;28;20495;-72
2023/04/29 03:58:01;;;;;;;25.38;12.15;;;;;;;12.05;100.00;100172.34;5172784;28;20029;-72
2023/04/29 04:00:32;;;;;;;26.77;12.55;;;;;;;11.97;100.00;100166.59;5174756;28;20232;-72
2023/04/29 04:03:03;;;;;;;25.38;11.82;;;;;;;12.03;100.00;100175.94;5179796;28;20034;-73
2023/04/29 04:05:33;;;;;;;25.67;11.88;;;;;;;11.93;100.00;100178.16;5175703;28;20092;-72
2023/04/29 04:08:04;;;;;;;22.10;10.75;;;;;;;11.89;100.00;100192.31;5173300;28;20084;-72
2023/04/29 04:10:34;;;;;;;21.55;11.15;;;;;;;11.95;100.00;100193.81;5176263;28;20108;-73
2023/04/29 04:13:04;;;;;;;20.90;10.70;;;;;;;11.91;100.00;100193.09;5175839;28;20107;-72
2023/04/29 04:15:34;;;;;;;18.60;10.18;;;;;;;11.67;100.00;100209.94;5174950;28;20053;-73
2023/04/29 04:18:05;;;;;;;18.58;9.60;;;;;;;11.74;100.00;100206.13;5173769;28;20377;-72
2023/04/29 04:20:36;;;;;;;19.23;10.18;;;;;;;11.69;100.00;100218.56;5186214;28;20053;-72
2023/04/29 04:23:06;;;;;;;20.92;10.05;;;;;;;11.74;100.00;100223.56;5178874;28;20025;-73
2023/04/29 04:25:37;;;;;;;17.25;9.35;;;;;;;11.79;100.00;100226.84;5178884;28;20380;-72
2023/04/29 04:28:07;;;;;;;18.15;9.52;;;;;;;11.69;100.00;100221.19;5175376;28;20037;-72
2023/04/29 04:30:37;;;;;;;15.73;9.05;;;;;;;11.69;100.00;100242.13;5179389;28;20105;-72
2023/04/29 04:33:08;;;;;;;18.00;8.85;;;;;;;11.63;100.00;100238.94;5178021;28;20399;-72
2023/04/29 04:35:38;;;;;;;16.15;8.77;;;;;;;11.57;100.00;100237.44;5179363;28;20285;-72
2023/04/29 04:38:10;;;;;;;15.48;9.05;;;;;;;11.62;100.00;100251.16;5181457;28;20026;-70
2023/04/29 04:40:41;;;;;;;16.63;8.68;;;;;;;11.60;100.00;100246.94;5178153;28;20026;-72
2023/04/29 04:43:11;;;;;;;12.48;7.57;;;;;;;11.49;100.00;100251.75;5178609;28;20030;-72
2023/04/29 04:45:41;;;;;;;17.13;8.80;;;;;;;11.54;100.00;100250.63;5179107;28;20034;-75
2023/04/29 04:48:12;;;;;;;15.88;8.45;;;;;;;11.52;100.00;100256.84;5175709;28;20113;-72
2023/04/29 04:50:42;;;;;;;14.90;8.65;;;;;;;11.47;100.00;100256.22;5179743;28;20025;-72
2023/04/29 04:53:12;;;;;;;17.48;8.48;;;;;;;11.48;100.00;100268.38;5178454;28;20022;-73
2023/04/29 04:55:43;;;;;;;16.75;8.60;;;;;;;11.54;100.00;100265.47;5179613;28;20017;-72
2023/04/29 04:58:13;;;;;;;14.85;8.52;;;;;;;11.47;100.00;100271.91;5177123;28;20113;-73
2023/04/29 05:00:44;;;;;;;16.77;8.82;;;;;;;11.42;100.00;100277.34;5177495;28;20037;-72
2023/04/29 05:03:15;;;;;;;19.10;8.38;;;;;;;11.53;100.00;100290.81;5178001;28;20487;-72
2023/04/29 05:05:52;;;;;;;14.45;8.25;;;;;;;11.54;100.00;100291.66;5179039;28;20291;-72
2023/04/29 05:08:23;;;;;;;14.43;8.07;;;;;;;11.57;100.00;100292.41;5174244;28;20403;-72
2023/04/29 05:10:53;;;;;;;17.60;8.88;;;;;;;11.53;100.00;100301.28;5178345;28;20030;-73
2023/04/29 05:13:27;;;;;;;17.35;9.05;;;;;;;11.52;100.00;100307.44;5178413;28;20495;-72
2023/04/29 05:15:57;;;;;;;17.88;9.18;;;;;;;11.58;100.00;100304.56;5174849;28;20606;-73
2023/04/29 05:18:27;;;;;;;16.33;9.18;;;;;;;11.61;100.00;100314.06;5176905;28;20354;-72
2023/04/29 05:20:58;;;;;;;20.58;9.70;;;;;;;11.52;100.00;100315.28;5178104;28;20033;-72
2023/04/29 05:23:29;;;;;;;18.83;9.60;;;;;;;11.43;100.00;100320.06;5176386;28;20029;-73
2023/04/29 05:25:59;;;;;;;20.70;10.55;;;;;;;11.41;100.00;100325.34;5178003;28;20495;-72
2023/04/29 05:28:29;;;;;;;23.52;11.25;;;;;;;11.38;100.00;100327.25;5176493;28;20410;-74
2023/04/29 05:31:00;;;;;;;20.25;9.30;;;;;;;11.32;100.00;100331.00;5177902;28;20018;-73
2023/04/29 05:33:30;;;;;;;19.02;10.10;;;;;;;11.19;100.00;100329.81;5177638;28;20026;-70
2023/04/29 05:36:01;;;;;;;19.25;10.23;;;;;;;11.15;100.00;100336.09;5177962;28;20405;-74
2023/04/29 05:38:31;;;;;;;22.35;11.35;;;;;;;11.10;100.00;100343.25;5175592;28;20104;-72
2023/04/29 05:41:02;;;;;;;23.80;11.50;;;;;;;11.10;100.00;100345.88;5178485;28;20289;-72
2023/04/29 05:43:32;;;;;;;21.98;11.52;;;;;;;11.18;100.00;100348.16;5180932;28;20025;-71
2023/04/29 05:46:03;;;;;;;23.38;11.40;;;;;;;11.10;100.00;100356.31;5179694;28;20121;-71
2023/04/29 05:48:33;;;;;;;20.98;10.50;;;;;;;11.08;100.00;100358.16;5174373;28;20562;-71
2023/04/29 05:51:03;;;;;;;25.92;11.48;;;;;;;11.03;100.00;100362.75;5178640;28;20022;-71
2023/04/29 05:53:35;;;;;;;21.98;11.52;;;;;;;11.14;100.00;100357.91;5175907;28;20034;-71
2023/04/29 05:56:07;;;;;;;21.02;10.70;;;;;;;11.16;100.00;100370.94;5176739;28;20088;-71
2023/04/29 05:58:37;;;;;;;21.25;9.75;;;;;;;11.19;100.00;100363.81;5175276;28;20038;-73
2023/04/29 06:01:07;;;;;;;22.95;10.50;;;;;;;11.13;100.00;100366.66;5175529;28;20038;-73
2023/04/29 06:03:38;;;;;;;18.20;9.73;;;;;;;11.17;100.00;100370.00;5176934;28;20030;-71
2023/04/29 06:06:08;;;;;;;19.20;9.65;;;;;;;11.18;100.00;100376.94;5177902;28;20032;-73
2023/04/29 06:08:39;;;;;;;17.73;10.00;;;;;;;11.16;100.00;100382.25;5174588;28;20543;-72
2023/04/29 06:11:09;;;;;;;20.88;10.20;;;;;;;11.04;100.00;100395.81;5176240;28;20017;-72
2023/04/29 06:13:39;;;;;;;20.17;10.05;;;;;;;11.07;100.00;100394.84;5177960;28;20476;-74
2023/04/29 06:16:10;;;;;;;17.58;9.70;;;;;;;11.12;100.00;100393.72;5176824;28;20065;-71
2023/04/29 06:18:40;;;;;;;17.88;9.30;;;;;;;11.27;100.00;100400.94;5176569;28;20109;-71
2023/04/29 06:21:11;;;;;;;15.65;8.27;;;;;;;11.30;100.00;100408.66;5176646;28;20436;-71
2023/04/29 06:23:41;;;;;;;22.88;9.48;;;;;;;11.25;100.00;100415.88;5179291;28;20029;-73
2023/04/29 06:26:12;;;;;;;16.60;8.10;;;;;;;11.21;100.00;100424.75;5179963;28;20030;-73
2023/04/29 06:28:42;;;;;;;16.13;9.10;;;;;;;11.04;100.00;100421.09;5175870;28;20463;-72
2023/04/29 06:31:13;;;;;;;16.15;8.70;;;;;;;11.12;100.00;100434.75;5176092;28;20399;-71
2023/04/29 06:33:43;;;;;;;16.27;9.13;;;;;;;11.06;100.00;100435.84;5180821;28;20029;-73
2023/04/29 06:36:13;;;;;;;12.50;6.68;;;;;;;10.94;100.00;100447.69;5176109;28;20053;-73
2023/04/29 06:38:43;;;;;;;12.05;7.18;;;;;;;10.95;100.00;100457.22;5171715;28;20376;-72
2023/04/29 06:41:14;;;;;;;11.15;6.30;;;;;;;10.82;100.00;100451.63;5177614;28;20117;-71
2023/04/29 06:43:44;;;;;;;12.75;6.75;;;;;;;10.97;100.00;100452.78;5176386;28;20104;-72
2023/04/29 06:46:15;;;;;;;9.70;5.75;;;;;;;10.89;100.00;100458.31;5172120;28;20033;-72
2023/04/29 06:48:45;;;;;;;10.45;5.78;;;;;;;10.92;100.00;100457.34;5178231;28;20577;-71
2023/04/29 06:51:16;;;;;;;9.93;5.38;;;;;;;10.88;100.00;100461.00;5174475;28;20392;-72
2023/04/29 06:53:47;;;;;;;9.20;5.30;;;;;;;10.96;100.00;100469.38;5176352;28;20071;-73
2023/04/29 06:56:17;;;;;;;9.43;5.50;;;;;;;11.00;100.00;100468.38;5175488;28;20021;-72
2023/04/29 06:58:47;;;;;;;9.90;5.18;;;;;;;11.13;100.00;100475.69;5177670;28;20080;-71
2023/04/29 07:01:18;;;;;;;9.18;5.22;;;;;;;11.05;100.00;100481.19;5179901;28;20029;-71
2023/04/29 07:03:48;;;;;;;9.50;5.47;;;;;;;11.21;100.00;100487.53;5175592;28;20451;-70
2023/04/29 07:06:18;;;;;;;11.48;6.10;;;;;;;11.16;100.00;100494.72;5176323;28;20060;-72
2023/04/29 07:08:49;;;;;;;10.93;5.70;;;;;;;11.16;100.00;100505.19;5174096;28;20134;-70
2023/04/29 07:11:19;;;;;;;10.43;5.80;;;;;;;11.05;100.00;100502.13;5176353;28;20029;-73
2023/04/29 07:13:52;;;;;;;11.30;6.10;;;;;;;11.05;100.00;100506.50;5173978;28;20197;-71
2023/04/29 07:16:25;;;;;;;12.70;6.25;;;;;;;11.11;100.00;100512.34;5174455;28;20030;-72
2023/04/29 07:18:55;;;;;;;12.25;6.45;;;;;;;11.04;100.00;100518.72;5173083;28;20527;-72
2023/04/29 07:21:26;;;;;;;13.18;6.63;;;;;;;11.14;100.00;100520.06;5175870;28;20037;-71
2023/04/29 07:23:59;;;;;;;14.40;6.60;;;;;;;11.08;100.00;100529.94;5176492;28;20026;-72
2023/04/29 07:26:30;;;;;;;10.48;6.28;;;;;;;11.07;100.00;100529.06;5178838;28;20032;-72
2023/04/29 07:29:00;;;;;;;11.55;6.70;;;;;;;11.17;100.00;100542.63;5175322;28;20030;-71
2023/04/29 07:31:30;;;;;;;11.10;6.50;;;;;;;11.17;100.00;100537.41;5176422;28;21602;-71
2023/04/29 07:34:01;;;;;;;15.52;7.70;;;;;;;11.18;100.00;100550.44;5175592;28;20022;-72
2023/04/29 07:36:31;;;;;;;11.15;6.97;;;;;;;11.18;100.00;100555.69;5173588;28;20369;-73
2023/04/29 07:39:02;;;;;;;11.65;6.78;;;;;;;11.17;100.00;100553.97;5171126;28;20444;-73
2023/04/29 07:41:32;;;;;;;13.73;7.50;;;;;;;11.23;100.00;100558.97;5174916;28;20662;-73
2023/04/29 07:44:03;;;;;;;10.85;6.90;;;;;;;11.25;100.00;100558.91;5178743;28;20500;-72
2023/04/29 07:46:33;;;;;;;11.40;6.93;;;;;;;11.43;100.00;100564.25;5173283;28;20645;-72
2023/04/29 07:49:05;;;;;;;12.50;6.93;;;;;;;11.58;100.00;100576.78;5171186;28;20021;-73
2023/04/29 07:51:36;;;;;;;11.52;7.25;;;;;;;11.72;100.00;100571.00;5175244;28;20484;-70
2023/04/29 07:54:06;;;;;;;17.35;7.53;;;;;;;11.63;100.00;100579.22;5176317;28;20084;-70
2023/04/29 07:56:36;;;;;;;14.63;6.95;;;;;;;11.61;100.00;100588.91;5180007;28;20466;-69
2023/04/29 07:59:06;;;;;;;13.23;6.55;;;;;;;11.54;100.00;100584.78;5178590;28;20423;-69
2023/04/29 08:01:37;;;;;;;17.65;7.00;;;;;;;11.62;100.00;100588.00;5182256;28;20498;-70
2023/04/29 08:04:07;;;;;;;24.00;9.13;;;;;;;11.68;100.00;100601.69;5183256;28;20029;-72
2023/04/29 08:06:38;;;;;;;14.80;7.25;;;;;;;11.72;100.00;100598.03;5182851;28;20029;-72
2023/04/29 08:09:08;;;;;;;20.85;6.82;;;;;;;11.76;100.00;100607.47;5178206;28;20028;-72
2023/04/29 08:11:38;;;;;;;21.33;7.95;;;;;;;11.82;100.00;100611.63;5179839;28;20340;-71
2023/04/29 08:14:09;;;;;;;12.48;6.55;;;;;;;11.81;100.00;100609.91;5178615;28;20080;-73
2023/04/29 08:16:39;;;;;;;11.77;6.90;;;;;;;11.98;100.00;100603.06;5183093;28;20663;-72
2023/04/29 08:19:10;;;;;;;10.88;6.30;;;;;;;12.38;100.00;100608.38;5178368;28;20021;-72
2023/04/29 08:21:41;;;;;;;13.98;6.57;;;;;;;12.60;100.00;100614.41;5177772;28;20379;-73
2023/04/29 08:24:12;;;;;;;9.77;5.70;;;;;;;12.96;100.00;100611.97;5183306;28;20030;-73
2023/04/29 08:26:42;;;;;;;9.85;6.13;;;;;;;12.97;100.00;100617.13;5179584;28;20123;-73
2023/04/29 08:29:13;;;;;;;10.55;5.75;;;;;;;12.97;100.00;100621.56;5177564;28;20447;-72
2023/04/29 08:31:43;;;;;;;9.57;6.05;;;;;;;13.02;100.00;100625.66;5179629;28;20029;-73
2023/04/29 08:34:14;;;;;;;10.95;6.00;;;;;;;13.02;100.00;100618.66;5179328;28;20276;-71
2023/04/29 08:36:45;;;;;;;12.07;6.22;;;;;;;13.16;100.00;100623.25;5179150;28;20034;-71
2023/04/29 08:39:15;;;;;;;9.63;5.65;;;;;;;13.42;99.82;100636.06;5176833;28;20587;-72
2023/04/29 08:41:50;;;;;;;9.13;5.47;;;;;;;13.38;98.94;100637.13;5179437;28;20119;-73
2023/04/29 08:44:20;;;;;;;8.25;4.80;;;;;;;13.88;94.73;100639.06;5176453;28;20507;-73
2023/04/29 08:46:51;;;;;;;8.45;4.88;;;;;;;13.89;96.52;100650.44;5181219;28;20045;-73
2023/04/29 08:49:22;;;;;;;9.85;6.72;;;;;;;13.61;96.69;100650.88;5176104;28;20025;-72
2023/04/29 08:51:52;;;;;;;9.00;5.53;;;;;;;13.41;99.31;100658.00;5178879;28;20018;-72
2023/04/29 08:54:22;;;;;;;9.68;5.60;;;;;;;13.58;99.38;100651.03;5179067;28;20101;-73
2023/04/29 08:56:54;;;;;;;10.63;5.57;;;;;;;13.97;98.25;100654.41;5178711;28;20026;-72
2023/04/29 08:59:25;;;;;;;8.05;4.97;;;;;;;14.52;91.89;100652.56;5177939;28;20048;-73
2023/04/29 09:01:56;;;;;;;9.18;4.93;;;;;;;16.84;87.00;100635.94;5177453;28;20407;-72
2023/04/29 09:04:45;;;;;;;7.65;4.97;;;;;;;17.24;80.22;100635.25;5177507;28;20197;-72
2023/04/29 09:07:16;;;;;;;9.40;4.72;;;;;;;16.28;82.55;100648.13;5176545;28;20117;-72
2023/04/29 09:09:48;;;;;;;8.05;4.18;;;;;;;15.91;84.43;100645.88;5179144;28;20105;-73
2023/04/29 09:12:18;;;;;;;8.35;5.07;;;;;;;15.45;85.65;100653.75;5175681;28;20080;-73
2023/04/29 09:14:49;;;;;;;10.65;5.22;;;;;;;15.61;85.32;100655.50;5176183;28;20495;-71
2023/04/29 09:17:37;;;;;;;10.20;4.93;;;;;;;15.37;85.42;100651.53;5176077;28;20033;-72
2023/04/29 09:20:20;;;;;;;11.18;4.97;;;;;;;15.22;87.40;100652.31;5177097;28;20117;-72
2023/04/29 09:22:53;;;;;;;8.50;5.18;;;;;;;15.37;85.33;100650.69;5174874;28;20037;-72
2023/04/29 09:25:23;;;;;;;10.25;5.68;;;;;;;15.25;87.65;100651.31;5180062;28;20280;-73
2023/04/29 09:27:54;;;;;;;8.65;5.18;;;;;;;14.78;84.26;100665.28;5182260;28;20389;-71
2023/04/29 09:30:25;;;;;;;13.35;6.90;;;;;;;15.04;84.52;100663.00;5182209;28;20598;-73
2023/04/29 09:33:07;;;;;;;7.90;4.38;;;;;;;14.76;85.41;100677.66;5175287;28;20054;-73
2023/04/29 09:35:40;;;;;;;11.25;6.53;;;;;;;14.56;84.93;100683.06;5227995;22;20041;-70
2023/04/29 09:38:15;;;;;;;7.85;4.65;;;;;;;14.57;84.17;100682.16;5207911;28;20060;-72
2023/04/29 09:40:45;;;;;;;6.53;3.88;;;;;;;14.43;82.35;100680.19;5207174;28;20084;-72
2023/04/29 09:43:17;;;;;;;7.47;3.63;;;;;;;14.27;83.11;100679.22;5209201;28;20033;-71
2023/04/29 09:45:48;;;;;;;8.65;3.80;;;;;;;14.25;83.63;100693.41;5202084;28;20037;-71
2023/04/29 09:48:18;;;;;;;8.73;4.80;;;;;;;14.50;85.05;100693.88;5186737;28;20022;-72
2023/04/29 09:51:00;;;;;;;9.32;4.05;;;;;;;14.74;84.06;100690.03;5188361;28;20041;-71
2023/04/29 09:53:31;;;;;;;11.18;5.63;;;;;;;14.96;81.71;100696.72;5187871;28;20033;-72
2023/04/29 09:56:02;;;;;;;7.78;4.60;;;;;;;15.02;81.08;100686.75;5180463;28;20037;-72
2023/04/29 09:58:36;;;;;;;10.40;5.25;;;;;;;15.33;80.60;100686.88;5183022;28;20408;-71
2023/04/29 10:01:08;;;;;;;9.00;4.00;;;;;;;15.58;78.98;100684.66;5185294;28;20037;-73
2023/04/29 10:03:41;;;;;;;10.05;3.65;;;;;;;15.97;77.72;100682.44;5190347;28;20045;-71
2023/04/29 10:06:13;;;;;;;5.22;3.47;;;;;;;16.05;76.91;100690.78;5205099;28;20118;-73
2023/04/29 10:08:45;;;;;;;7.07;3.33;;;;;;;16.00;77.28;100695.47;5185417;28;20029;-72
2023/04/29 10:11:16;;;;;;;8.23;4.10;;;;;;;15.91;75.13;100684.56;5183642;28;20030;-71
2023/04/29 10:13:49;;;;;;;8.02;4.20;;;;;;;15.84;76.31;100697.25;5185408;28;20125;-72
2023/04/29 10:16:25;;;;;;;8.60;3.70;;;;;;;15.57;75.56;100690.81;5187918;28;20503;-72
2023/04/29 10:18:59;;;;;;;8.07;3.70;;;;;;;15.35;76.01;100700.81;5184142;28;20116;-72
2023/04/29 10:21:30;;;;;;;7.53;4.13;;;;;;;15.16;77.11;100694.78;5189084;28;20060;-72
2023/04/29 10:24:02;;;;;;;6.05;3.75;;;;;;;15.53;76.58;100696.38;5184249;28;20201;-71
2023/04/29 10:26:33;;;;;;;6.55;3.38;;;;;;;15.95;75.88;100696.63;5190680;28;20597;-72
2023/04/29 10:29:04;;;;;;;6.10;3.30;;;;;;;16.04;78.10;100696.97;5184621;28;20033;-71
2023/04/29 10:31:36;;;;;;;5.85;3.40;;;;;;;15.92;76.68;100702.09;5186675;28;20025;-73
2023/04/29 10:34:06;;;;;;;8.18;3.88;;;;;;;15.61;77.63;100707.31;5186904;28;20472;-73
2023/04/29 10:36:37;;;;;;;8.00;3.60;;;;;;;15.26;76.73;100693.38;5185566;28;20031;-73
2023/04/29 10:39:15;;;;;;;8.82;3.33;;;;;;;15.18;76.40;100700.81;5182047;28;20457;-72
2023/04/29 10:41:46;;;;;;;12.75;4.70;;;;;;;15.16;76.89;100701.84;5185633;28;20455;-72
2023/04/29 10:44:16;;;;;;;13.25;5.07;;;;;;;15.29;78.47;100711.69;5186885;28;20124;-71
2023/04/29 10:46:46;;;;;;;15.38;6.32;;;;;;;15.13;79.84;100710.75;5185296;28;20030;-73
2023/04/29 10:49:17;;;;;;;14.13;5.68;;;;;;;15.06;79.53;100719.03;5184495;28;20487;-71
2023/04/29 10:51:47;;;;;;;15.82;7.60;;;;;;;14.65;80.43;100724.69;5181418;28;20038;-73
2023/04/29 10:54:24;;;;;;;11.38;5.13;;;;;;;14.62;79.91;100732.72;5183824;28;20487;-72
2023/04/29 10:56:54;;;;;;;14.48;5.63;;;;;;;14.40;79.30;100732.09;5183058;28;20048;-73
2023/04/29 10:59:45;;;;;;;17.73;8.27;;;;;;;14.48;80.77;100722.91;5186654;28;20056;-72
2023/04/29 11:02:16;;;;;;;12.18;5.95;;;;;;;14.52;82.08;100728.84;5184633;28;20833;-72
2023/04/29 11:05:06;;;;;;;12.52;5.60;;;;;;;14.50;80.11;100722.81;5184288;28;20025;-73
2023/04/29 11:07:36;;;;;;;13.30;6.03;;;;;;;14.61;80.74;100736.28;5181011;28;20141;-72
2023/04/29 11:10:07;;;;;;;15.18;6.80;;;;;;;14.72;80.53;100731.34;5185488;28;20153;-72
2023/04/29 11:12:37;;;;;;;12.70;5.28;;;;;;;14.81;79.76;100733.53;5182728;28;20033;-72
2023/04/29 11:15:10;;;;;;;9.55;4.70;;;;;;;14.80;78.54;100729.19;5185330;28;20037;-72
2023/04/29 11:17:40;;;;;;;7.75;3.90;;;;;;;14.96;79.21;100733.59;5181286;28;20030;-72
2023/04/29 11:20:13;;;;;;;6.60;4.05;;;;;;;15.24;77.05;100737.38;5184247;28;20030;-72
2023/04/29 11:22:51;;;;;;;11.20;4.47;;;;;;;15.40;77.95;100729.56;5182401;28;20086;-73
2023/04/29 11:25:24;;;;;;;7.25;3.33;;;;;;;15.52;76.31;100727.13;5187940;28;20061;-72
2023/04/29 11:27:58;;;;;;;4.88;3.08;;;;;;;15.39;74.84;100731.31;5180352;28;20157;-72
2023/04/29 11:30:28;;;;;;;6.28;2.88;;;;;;;15.47;75.98;100728.28;5186201;28;20744;-71